sensor_id;sensor_type;location;lat;lon;timestamp;P1;durP1;ratioP1;P2;durP2;ratioP2
5890;SDS011;2971;52.420;7.080;2023-04-05T00:00:18;10.23;;;6.17;;
5890;SDS011;2971;52.420;7.080;2023-04-05T00:02:44;8.07;;;7.03;;
5890;SDS011;2971;52.420;7.080;2023-04-05T00:05:09;9.63;;;6.57;;
5890;SDS011;2971;52.420;7.080;2023-04-05T00:07:36;10.00;;;6.00;;
5890;SDS011;2971;52.420;7.080;2023-04-05T00:10:02;10.30;;;6.07;;
5890;SDS011;2971;52.420;7.080;2023-04-05T00:12:28;8.50;;;5.77;;
5890;SDS011;2971;52.420;7.080;2023-04-05T00:14:53;13.63;;;6.20;;
5890;SDS011;2971;52.420;7.080;2023-04-05T00:17:18;10.30;;;6.30;;
5890;SDS011;2971;52.420;7.080;2023-04-05T00:19:44;10.10;;;6.70;;
5890;SDS011;2971;52.420;7.080;2023-04-05T00:22:15;10.13;;;6.20;;
5890;SDS011;2971;52.420;7.080;2023-04-05T00:24:44;7.87;;;6.03;;
5890;SDS011;2971;52.420;7.080;2023-04-05T00:27:09;10.73;;;6.30;;
5890;SDS011;2971;52.420;7.080;2023-04-05T00:29:35;10.73;;;6.37;;
5890;SDS011;2971;52.420;7.080;2023-04-05T00:32:00;8.70;;;6.33;;
5890;SDS011;2971;52.420;7.080;2023-04-05T00:34:25;9.37;;;6.10;;
5890;SDS011;2971;52.420;7.080;2023-04-05T00:36:51;9.40;;;6.20;;
5890;SDS011;2971;52.420;7.080;2023-04-05T00:39:16;10.23;;;6.63;;
5890;SDS011;2971;52.420;7.080;2023-04-05T00:41:42;8.40;;;6.20;;
5890;SDS011;2971;52.420;7.080;2023-04-05T00:44:08;7.83;;;5.93;;
5890;SDS011;2971;52.420;7.080;2023-04-05T00:46:34;8.70;;;6.67;;
5890;SDS011;2971;52.420;7.080;2023-04-05T00:49:00;11.27;;;6.10;;
5890;SDS011;2971;52.420;7.080;2023-04-05T00:51:26;10.60;;;6.90;;
5890;SDS011;2971;52.420;7.080;2023-04-05T00:53:51;11.30;;;6.93;;
5890;SDS011;2971;52.420;7.080;2023-04-05T00:56:17;9.83;;;6.93;;
5890;SDS011;2971;52.420;7.080;2023-04-05T00:58:45;8.53;;;5.80;;
5890;SDS011;2971;52.420;7.080;2023-04-05T01:01:13;8.53;;;6.20;;
5890;SDS011;2971;52.420;7.080;2023-04-05T01:03:51;10.43;;;6.57;;
5890;SDS011;2971;52.420;7.080;2023-04-05T01:06:30;10.10;;;6.63;;
5890;SDS011;2971;52.420;7.080;2023-04-05T01:09:07;9.77;;;6.93;;
5890;SDS011;2971;52.420;7.080;2023-04-05T01:11:38;9.77;;;7.10;;
5890;SDS011;2971;52.420;7.080;2023-04-05T01:14:04;11.20;;;6.73;;
5890;SDS011;2971;52.420;7.080;2023-04-05T01:16:30;9.53;;;7.13;;
5890;SDS011;2971;52.420;7.080;2023-04-05T01:18:55;7.97;;;6.40;;
5890;SDS011;2971;52.420;7.080;2023-04-05T01:32:02;10.03;;;6.80;;
5890;SDS011;2971;52.420;7.080;2023-04-05T01:37:07;10.70;;;7.03;;
5890;SDS011;2971;52.420;7.080;2023-04-05T01:39:36;12.03;;;7.37;;
5890;SDS011;2971;52.420;7.080;2023-04-05T01:42:02;10.50;;;6.90;;
5890;SDS011;2971;52.420;7.080;2023-04-05T01:44:28;10.00;;;7.77;;
5890;SDS011;2971;52.420;7.080;2023-04-05T01:46:53;9.93;;;7.10;;
5890;SDS011;2971;52.420;7.080;2023-04-05T01:49:19;12.60;;;7.53;;
5890;SDS011;2971;52.420;7.080;2023-04-05T01:51:48;12.07;;;7.60;;
5890;SDS011;2971;52.420;7.080;2023-04-05T01:54:13;9.37;;;7.27;;
5890;SDS011;2971;52.420;7.080;2023-04-05T01:56:38;10.27;;;7.17;;
5890;SDS011;2971;52.420;7.080;2023-04-05T01:59:04;10.70;;;7.53;;
5890;SDS011;2971;52.420;7.080;2023-04-05T02:01:29;11.23;;;8.00;;
5890;SDS011;2971;52.420;7.080;2023-04-05T02:03:55;11.90;;;7.63;;
5890;SDS011;2971;52.420;7.080;2023-04-05T02:06:21;11.03;;;7.50;;
5890;SDS011;2971;52.420;7.080;2023-04-05T02:08:46;11.13;;;7.33;;
5890;SDS011;2971;52.420;7.080;2023-04-05T02:11:11;10.53;;;7.93;;
5890;SDS011;2971;52.420;7.080;2023-04-05T02:13:37;11.83;;;7.57;;
5890;SDS011;2971;52.420;7.080;2023-04-05T02:16:02;13.13;;;8.20;;
5890;SDS011;2971;52.420;7.080;2023-04-05T02:18:28;9.63;;;7.27;;
5890;SDS011;2971;52.420;7.080;2023-04-05T02:21:06;11.83;;;7.87;;
5890;SDS011;2971;52.420;7.080;2023-04-05T02:23:34;11.33;;;7.47;;
5890;SDS011;2971;52.420;7.080;2023-04-05T02:26:00;12.67;;;8.20;;
5890;SDS011;2971;52.420;7.080;2023-04-05T02:28:26;12.67;;;8.63;;
5890;SDS011;2971;52.420;7.080;2023-04-05T02:30:51;12.17;;;7.93;;
5890;SDS011;2971;52.420;7.080;2023-04-05T02:33:16;13.03;;;7.73;;
5890;SDS011;2971;52.420;7.080;2023-04-05T02:35:42;9.67;;;7.60;;
5890;SDS011;2971;52.420;7.080;2023-04-05T02:38:08;14.83;;;7.63;;
5890;SDS011;2971;52.420;7.080;2023-04-05T02:40:33;11.37;;;7.87;;
5890;SDS011;2971;52.420;7.080;2023-04-05T02:42:59;12.57;;;8.00;;
5890;SDS011;2971;52.420;7.080;2023-04-05T02:45:25;12.27;;;7.73;;
5890;SDS011;2971;52.420;7.080;2023-04-05T02:47:51;13.67;;;8.70;;
5890;SDS011;2971;52.420;7.080;2023-04-05T02:50:17;19.33;;;8.53;;
5890;SDS011;2971;52.420;7.080;2023-04-05T02:52:44;12.10;;;8.23;;
5890;SDS011;2971;52.420;7.080;2023-04-05T02:55:13;12.00;;;8.63;;
5890;SDS011;2971;52.420;7.080;2023-04-05T02:57:39;12.80;;;8.77;;
5890;SDS011;2971;52.420;7.080;2023-04-05T03:00:06;13.20;;;8.63;;
5890;SDS011;2971;52.420;7.080;2023-04-05T03:02:32;10.80;;;8.53;;
5890;SDS011;2971;52.420;7.080;2023-04-05T03:04:58;14.47;;;8.87;;
5890;SDS011;2971;52.420;7.080;2023-04-05T03:07:26;11.10;;;7.97;;
5890;SDS011;2971;52.420;7.080;2023-04-05T03:09:51;13.80;;;8.07;;
5890;SDS011;2971;52.420;7.080;2023-04-05T03:12:18;14.07;;;9.07;;
5890;SDS011;2971;52.420;7.080;2023-04-05T03:14:43;10.43;;;8.03;;
5890;SDS011;2971;52.420;7.080;2023-04-05T03:17:10;14.07;;;9.40;;
5890;SDS011;2971;52.420;7.080;2023-04-05T03:19:36;12.20;;;8.73;;
5890;SDS011;2971;52.420;7.080;2023-04-05T03:22:01;14.60;;;9.53;;
5890;SDS011;2971;52.420;7.080;2023-04-05T03:24:27;14.23;;;9.87;;
5890;SDS011;2971;52.420;7.080;2023-04-05T03:26:52;13.70;;;9.13;;
5890;SDS011;2971;52.420;7.080;2023-04-05T03:29:17;12.97;;;9.57;;
5890;SDS011;2971;52.420;7.080;2023-04-05T03:31:43;13.70;;;9.40;;
5890;SDS011;2971;52.420;7.080;2023-04-05T03:34:09;15.40;;;9.47;;
5890;SDS011;2971;52.420;7.080;2023-04-05T03:36:34;14.97;;;9.83;;
5890;SDS011;2971;52.420;7.080;2023-04-05T03:39:06;15.23;;;10.27;;
5890;SDS011;2971;52.420;7.080;2023-04-05T03:41:34;14.13;;;9.70;;
5890;SDS011;2971;52.420;7.080;2023-04-05T03:43:59;14.83;;;9.67;;
5890;SDS011;2971;52.420;7.080;2023-04-05T03:46:25;13.63;;;9.27;;
5890;SDS011;2971;52.420;7.080;2023-04-05T03:48:50;13.67;;;9.50;;
5890;SDS011;2971;52.420;7.080;2023-04-05T03:51:16;15.73;;;10.83;;
5890;SDS011;2971;52.420;7.080;2023-04-05T03:53:42;17.90;;;10.97;;
5890;SDS011;2971;52.420;7.080;2023-04-05T03:56:08;13.30;;;9.70;;
5890;SDS011;2971;52.420;7.080;2023-04-05T03:58:34;13.47;;;9.43;;
5890;SDS011;2971;52.420;7.080;2023-04-05T04:01:00;14.50;;;9.43;;
5890;SDS011;2971;52.420;7.080;2023-04-05T04:03:25;16.03;;;9.77;;
5890;SDS011;2971;52.420;7.080;2023-04-05T04:05:52;13.37;;;9.63;;
5890;SDS011;2971;52.420;7.080;2023-04-05T04:08:18;16.47;;;9.97;;
5890;SDS011;2971;52.420;7.080;2023-04-05T04:10:44;18.67;;;10.53;;
5890;SDS011;2971;52.420;7.080;2023-04-05T04:13:09;13.87;;;9.70;;
5890;SDS011;2971;52.420;7.080;2023-04-05T04:15:35;16.03;;;11.10;;
5890;SDS011;2971;52.420;7.080;2023-04-05T04:18:00;16.67;;;9.77;;
5890;SDS011;2971;52.420;7.080;2023-04-05T04:20:25;13.87;;;10.37;;
5890;SDS011;2971;52.420;7.080;2023-04-05T04:22:51;16.93;;;11.00;;
5890;SDS011;2971;52.420;7.080;2023-04-05T04:25:17;20.37;;;12.10;;
5890;SDS011;2971;52.420;7.080;2023-04-05T04:27:44;17.77;;;11.27;;
5890;SDS011;2971;52.420;7.080;2023-04-05T04:30:13;14.93;;;10.93;;
5890;SDS011;2971;52.420;7.080;2023-04-05T04:32:40;18.17;;;12.00;;
5890;SDS011;2971;52.420;7.080;2023-04-05T04:35:15;18.13;;;12.10;;
5890;SDS011;2971;52.420;7.080;2023-04-05T04:37:52;16.00;;;12.10;;
5890;SDS011;2971;52.420;7.080;2023-04-05T04:40:34;19.90;;;12.43;;
5890;SDS011;2971;52.420;7.080;2023-04-05T04:43:13;18.70;;;12.60;;
5890;SDS011;2971;52.420;7.080;2023-04-05T04:45:46;19.27;;;12.33;;
5890;SDS011;2971;52.420;7.080;2023-04-05T04:48:12;16.97;;;12.57;;
5890;SDS011;2971;52.420;7.080;2023-04-05T04:50:38;20.47;;;13.87;;
5890;SDS011;2971;52.420;7.080;2023-04-05T04:53:04;18.13;;;13.17;;
5890;SDS011;2971;52.420;7.080;2023-04-05T04:55:30;18.10;;;11.70;;
5890;SDS011;2971;52.420;7.080;2023-04-05T04:57:57;20.93;;;12.47;;
5890;SDS011;2971;52.420;7.080;2023-04-05T05:00:23;18.63;;;12.83;;
5890;SDS011;2971;52.420;7.080;2023-04-05T05:02:49;21.63;;;13.53;;
5890;SDS011;2971;52.420;7.080;2023-04-05T05:05:16;19.90;;;13.27;;
5890;SDS011;2971;52.420;7.080;2023-04-05T05:07:42;18.50;;;12.60;;
5890;SDS011;2971;52.420;7.080;2023-04-05T05:10:08;19.53;;;13.40;;
5890;SDS011;2971;52.420;7.080;2023-04-05T05:12:35;20.43;;;14.10;;
5890;SDS011;2971;52.420;7.080;2023-04-05T05:15:01;17.87;;;12.80;;
5890;SDS011;2971;52.420;7.080;2023-04-05T05:17:27;19.20;;;12.67;;
5890;SDS011;2971;52.420;7.080;2023-04-05T05:19:52;20.03;;;13.63;;
5890;SDS011;2971;52.420;7.080;2023-04-05T05:22:18;19.17;;;12.83;;
5890;SDS011;2971;52.420;7.080;2023-04-05T05:24:43;18.43;;;13.17;;
5890;SDS011;2971;52.420;7.080;2023-04-05T05:27:09;23.50;;;14.60;;
5890;SDS011;2971;52.420;7.080;2023-04-05T05:29:34;22.77;;;14.40;;
5890;SDS011;2971;52.420;7.080;2023-04-05T05:32:00;19.47;;;13.80;;
5890;SDS011;2971;52.420;7.080;2023-04-05T05:34:25;21.20;;;14.00;;
5890;SDS011;2971;52.420;7.080;2023-04-05T05:36:52;24.10;;;13.77;;
5890;SDS011;2971;52.420;7.080;2023-04-05T05:39:18;18.00;;;13.30;;
5890;SDS011;2971;52.420;7.080;2023-04-05T05:41:44;19.87;;;13.27;;
5890;SDS011;2971;52.420;7.080;2023-04-05T05:44:10;18.83;;;13.20;;
5890;SDS011;2971;52.420;7.080;2023-04-05T05:46:35;19.97;;;14.20;;
5890;SDS011;2971;52.420;7.080;2023-04-05T05:49:01;22.00;;;15.57;;
5890;SDS011;2971;52.420;7.080;2023-04-05T05:51:26;19.10;;;14.47;;
5890;SDS011;2971;52.420;7.080;2023-04-05T05:53:51;20.93;;;15.90;;
5890;SDS011;2971;52.420;7.080;2023-04-05T05:56:17;20.73;;;15.70;;
5890;SDS011;2971;52.420;7.080;2023-04-05T05:58:42;20.53;;;15.43;;
5890;SDS011;2971;52.420;7.080;2023-04-05T06:01:08;21.60;;;14.73;;
5890;SDS011;2971;52.420;7.080;2023-04-05T06:03:35;20.73;;;14.70;;
5890;SDS011;2971;52.420;7.080;2023-04-05T06:06:01;22.50;;;14.00;;
5890;SDS011;2971;52.420;7.080;2023-04-05T06:08:29;19.17;;;14.63;;
5890;SDS011;2971;52.420;7.080;2023-04-05T06:10:56;18.57;;;14.37;;
5890;SDS011;2971;52.420;7.080;2023-04-05T06:13:21;20.47;;;14.70;;
5890;SDS011;2971;52.420;7.080;2023-04-05T06:15:47;21.60;;;14.10;;
5890;SDS011;2971;52.420;7.080;2023-04-05T06:18:12;21.50;;;14.57;;
5890;SDS011;2971;52.420;7.080;2023-04-05T06:20:38;20.20;;;14.07;;
5890;SDS011;2971;52.420;7.080;2023-04-05T06:23:08;17.77;;;13.77;;
5890;SDS011;2971;52.420;7.080;2023-04-05T06:25:33;17.47;;;13.70;;
5890;SDS011;2971;52.420;7.080;2023-04-05T06:27:59;20.30;;;13.63;;
5890;SDS011;2971;52.420;7.080;2023-04-05T06:30:26;18.93;;;13.23;;
5890;SDS011;2971;52.420;7.080;2023-04-05T06:32:51;19.93;;;12.30;;
5890;SDS011;2971;52.420;7.080;2023-04-05T06:35:19;16.97;;;12.00;;
5890;SDS011;2971;52.420;7.080;2023-04-05T06:37:45;15.67;;;11.83;;
5890;SDS011;2971;52.420;7.080;2023-04-05T06:40:10;18.27;;;10.97;;
5890;SDS011;2971;52.420;7.080;2023-04-05T06:42:36;20.90;;;11.27;;
5890;SDS011;2971;52.420;7.080;2023-04-05T06:45:02;15.57;;;11.03;;
5890;SDS011;2971;52.420;7.080;2023-04-05T06:47:28;17.17;;;11.13;;
5890;SDS011;2971;52.420;7.080;2023-04-05T06:49:54;13.43;;;10.10;;
5890;SDS011;2971;52.420;7.080;2023-04-05T06:52:19;14.73;;;10.53;;
5890;SDS011;2971;52.420;7.080;2023-04-05T06:54:44;14.30;;;10.50;;
5890;SDS011;2971;52.420;7.080;2023-04-05T06:57:10;13.63;;;9.50;;
5890;SDS011;2971;52.420;7.080;2023-04-05T06:59:35;13.20;;;9.43;;
5890;SDS011;2971;52.420;7.080;2023-04-05T07:02:01;13.50;;;9.50;;
5890;SDS011;2971;52.420;7.080;2023-04-05T07:04:26;14.03;;;9.43;;
5890;SDS011;2971;52.420;7.080;2023-04-05T07:06:53;12.10;;;9.60;;
5890;SDS011;2971;52.420;7.080;2023-04-05T07:09:19;13.00;;;9.90;;
5890;SDS011;2971;52.420;7.080;2023-04-05T07:11:46;13.33;;;9.50;;
5890;SDS011;2971;52.420;7.080;2023-04-05T07:14:11;13.50;;;9.37;;
5890;SDS011;2971;52.420;7.080;2023-04-05T07:16:36;11.67;;;8.50;;
5890;SDS011;2971;52.420;7.080;2023-04-05T07:19:02;11.93;;;9.47;;
5890;SDS011;2971;52.420;7.080;2023-04-05T07:21:30;11.87;;;9.07;;
5890;SDS011;2971;52.420;7.080;2023-04-05T07:23:55;12.60;;;9.37;;
5890;SDS011;2971;52.420;7.080;2023-04-05T07:26:24;12.20;;;9.23;;
5890;SDS011;2971;52.420;7.080;2023-04-05T07:28:51;13.27;;;9.23;;
5890;SDS011;2971;52.420;7.080;2023-04-05T07:31:16;11.73;;;8.37;;
5890;SDS011;2971;52.420;7.080;2023-04-05T07:33:41;10.93;;;8.30;;
5890;SDS011;2971;52.420;7.080;2023-04-05T07:36:07;10.03;;;7.03;;
5890;SDS011;2971;52.420;7.080;2023-04-05T07:38:33;9.23;;;7.37;;
5890;SDS011;2971;52.420;7.080;2023-04-05T07:40:58;10.20;;;7.27;;
5890;SDS011;2971;52.420;7.080;2023-04-05T07:43:24;8.33;;;6.63;;
5890;SDS011;2971;52.420;7.080;2023-04-05T07:45:49;8.90;;;6.47;;
5890;SDS011;2971;52.420;7.080;2023-04-05T07:48:17;9.50;;;7.47;;
5890;SDS011;2971;52.420;7.080;2023-04-05T07:50:43;10.47;;;7.00;;
5890;SDS011;2971;52.420;7.080;2023-04-05T07:53:12;9.23;;;6.90;;
5890;SDS011;2971;52.420;7.080;2023-04-05T07:55:38;7.07;;;6.13;;
5890;SDS011;2971;52.420;7.080;2023-04-05T07:58:03;7.60;;;6.43;;
5890;SDS011;2971;52.420;7.080;2023-04-05T08:00:29;10.10;;;6.83;;
5890;SDS011;2971;52.420;7.080;2023-04-05T08:02:54;9.97;;;6.47;;
5890;SDS011;2971;52.420;7.080;2023-04-05T08:05:19;9.90;;;5.80;;
5890;SDS011;2971;52.420;7.080;2023-04-05T08:07:45;7.43;;;6.60;;
5890;SDS011;2971;52.420;7.080;2023-04-05T08:10:10;8.63;;;6.83;;
5890;SDS011;2971;52.420;7.080;2023-04-05T08:12:36;8.13;;;6.40;;
5890;SDS011;2971;52.420;7.080;2023-04-05T08:15:01;7.57;;;5.67;;
5890;SDS011;2971;52.420;7.080;2023-04-05T08:17:27;6.60;;;5.67;;
5890;SDS011;2971;52.420;7.080;2023-04-05T08:19:53;7.23;;;5.57;;
5890;SDS011;2971;52.420;7.080;2023-04-05T08:22:19;7.70;;;5.80;;
5890;SDS011;2971;52.420;7.080;2023-04-05T08:24:44;6.00;;;5.40;;
5890;SDS011;2971;52.420;7.080;2023-04-05T08:27:10;6.20;;;4.90;;
5890;SDS011;2971;52.420;7.080;2023-04-05T08:29:35;6.00;;;4.67;;
5890;SDS011;2971;52.420;7.080;2023-04-05T08:32:01;7.17;;;5.10;;
5890;SDS011;2971;52.420;7.080;2023-04-05T08:34:27;6.07;;;4.50;;
5890;SDS011;2971;52.420;7.080;2023-04-05T08:36:52;6.43;;;4.70;;
5890;SDS011;2971;52.420;7.080;2023-04-05T08:39:18;5.50;;;4.67;;
5890;SDS011;2971;52.420;7.080;2023-04-05T08:41:49;8.47;;;5.00;;
5890;SDS011;2971;52.420;7.080;2023-04-05T08:44:22;5.90;;;4.73;;
5890;SDS011;2971;52.420;7.080;2023-04-05T08:46:50;6.43;;;4.53;;
5890;SDS011;2971;52.420;7.080;2023-04-05T08:49:17;5.60;;;4.60;;
5890;SDS011;2971;52.420;7.080;2023-04-05T08:51:42;6.83;;;4.70;;
5890;SDS011;2971;52.420;7.080;2023-04-05T08:54:07;7.43;;;5.60;;
5890;SDS011;2971;52.420;7.080;2023-04-05T08:56:34;5.83;;;4.50;;
5890;SDS011;2971;52.420;7.080;2023-04-05T08:59:06;9.40;;;5.10;;
5890;SDS011;2971;52.420;7.080;2023-04-05T09:01:38;6.90;;;4.87;;
5890;SDS011;2971;52.420;7.080;2023-04-05T09:04:14;5.47;;;4.60;;
5890;SDS011;2971;52.420;7.080;2023-04-05T09:06:41;6.47;;;4.23;;
5890;SDS011;2971;52.420;7.080;2023-04-05T09:09:08;15.63;;;9.53;;
5890;SDS011;2971;52.420;7.080;2023-04-05T09:11:35;8.13;;;5.00;;
5890;SDS011;2971;52.420;7.080;2023-04-05T09:14:04;7.47;;;4.73;;
5890;SDS011;2971;52.420;7.080;2023-04-05T09:16:31;5.63;;;4.63;;
5890;SDS011;2971;52.420;7.080;2023-04-05T09:18:58;5.30;;;4.50;;
5890;SDS011;2971;52.420;7.080;2023-04-05T09:21:30;5.90;;;4.27;;
5890;SDS011;2971;52.420;7.080;2023-04-05T09:24:28;6.47;;;5.17;;
5890;SDS011;2971;52.420;7.080;2023-04-05T09:27:08;14.93;;;9.40;;
5890;SDS011;2971;52.420;7.080;2023-04-05T09:29:41;10.03;;;6.10;;
5890;SDS011;2971;52.420;7.080;2023-04-05T09:32:09;12.10;;;8.67;;
5890;SDS011;2971;52.420;7.080;2023-04-05T09:34:35;9.20;;;6.10;;
5890;SDS011;2971;52.420;7.080;2023-04-05T09:37:01;5.70;;;4.80;;
5890;SDS011;2971;52.420;7.080;2023-04-05T09:39:28;6.00;;;4.17;;
5890;SDS011;2971;52.420;7.080;2023-04-05T09:47:25;5.33;;;4.03;;
5890;SDS011;2971;52.420;7.080;2023-04-05T09:49:55;6.30;;;3.97;;
5890;SDS011;2971;52.420;7.080;2023-04-05T09:52:22;5.33;;;4.20;;
5890;SDS011;2971;52.420;7.080;2023-04-05T09:54:53;4.40;;;3.80;;
5890;SDS011;2971;52.420;7.080;2023-04-05T09:57:21;4.57;;;4.00;;
5890;SDS011;2971;52.420;7.080;2023-04-05T09:59:47;5.40;;;4.00;;
5890;SDS011;2971;52.420;7.080;2023-04-05T10:02:12;5.40;;;4.07;;
5890;SDS011;2971;52.420;7.080;2023-04-05T10:04:42;8.17;;;4.07;;
5890;SDS011;2971;52.420;7.080;2023-04-05T10:07:09;6.03;;;4.20;;
5890;SDS011;2971;52.420;7.080;2023-04-05T10:09:37;6.20;;;4.10;;
5890;SDS011;2971;52.420;7.080;2023-04-05T10:12:07;5.83;;;3.97;;
5890;SDS011;2971;52.420;7.080;2023-04-05T10:14:34;4.43;;;3.50;;
5890;SDS011;2971;52.420;7.080;2023-04-05T10:17:08;5.93;;;3.67;;
5890;SDS011;2971;52.420;7.080;2023-04-05T10:25:12;4.00;;;3.07;;
5890;SDS011;2971;52.420;7.080;2023-04-05T10:27:47;3.73;;;3.17;;
5890;SDS011;2971;52.420;7.080;2023-04-05T10:30:14;5.20;;;3.53;;
5890;SDS011;2971;52.420;7.080;2023-04-05T10:32:41;4.60;;;3.40;;
5890;SDS011;2971;52.420;7.080;2023-04-05T10:35:15;4.40;;;3.57;;
5890;SDS011;2971;52.420;7.080;2023-04-05T10:37:51;4.90;;;3.30;;
5890;SDS011;2971;52.420;7.080;2023-04-05T10:40:23;4.80;;;3.70;;
5890;SDS011;2971;52.420;7.080;2023-04-05T10:42:54;4.40;;;3.30;;
5890;SDS011;2971;52.420;7.080;2023-04-05T10:45:20;3.70;;;3.40;;
5890;SDS011;2971;52.420;7.080;2023-04-05T10:47:53;4.70;;;3.40;;
5890;SDS011;2971;52.420;7.080;2023-04-05T10:50:26;5.07;;;3.53;;
5890;SDS011;2971;52.420;7.080;2023-04-05T10:52:51;5.27;;;3.23;;
5890;SDS011;2971;52.420;7.080;2023-04-05T10:55:17;4.63;;;3.40;;
5890;SDS011;2971;52.420;7.080;2023-04-05T10:57:44;4.40;;;3.50;;
5890;SDS011;2971;52.420;7.080;2023-04-05T11:00:09;4.63;;;3.33;;
5890;SDS011;2971;52.420;7.080;2023-04-05T11:02:36;4.57;;;3.30;;
5890;SDS011;2971;52.420;7.080;2023-04-05T11:05:04;4.53;;;3.50;;
5890;SDS011;2971;52.420;7.080;2023-04-05T11:07:42;5.27;;;3.27;;
5890;SDS011;2971;52.420;7.080;2023-04-05T11:10:16;3.70;;;3.30;;
5890;SDS011;2971;52.420;7.080;2023-04-05T11:18:10;6.10;;;3.40;;
5890;SDS011;2971;52.420;7.080;2023-04-05T11:23:13;4.87;;;3.97;;
5890;SDS011;2971;52.420;7.080;2023-04-05T11:25:40;4.37;;;3.40;;
5890;SDS011;2971;52.420;7.080;2023-04-05T11:28:21;5.90;;;3.67;;
5890;SDS011;2971;52.420;7.080;2023-04-05T11:31:11;4.97;;;3.90;;
5890;SDS011;2971;52.420;7.080;2023-04-05T11:36:09;5.07;;;3.60;;
5890;SDS011;2971;52.420;7.080;2023-04-05T11:38:35;5.00;;;3.70;;
5890;SDS011;2971;52.420;7.080;2023-04-05T11:41:19;5.07;;;3.60;;
5890;SDS011;2971;52.420;7.080;2023-04-05T11:43:45;4.03;;;3.20;;
5890;SDS011;2971;52.420;7.080;2023-04-05T11:46:12;5.73;;;3.87;;
5890;SDS011;2971;52.420;7.080;2023-04-05T11:48:39;7.47;;;3.60;;
5890;SDS011;2971;52.420;7.080;2023-04-05T11:51:06;4.90;;;3.40;;
5890;SDS011;2971;52.420;7.080;2023-04-05T11:53:34;5.30;;;3.10;;
5890;SDS011;2971;52.420;7.080;2023-04-05T11:56:07;6.27;;;3.63;;
5890;SDS011;2971;52.420;7.080;2023-04-05T11:58:34;4.13;;;3.53;;
5890;SDS011;2971;52.420;7.080;2023-04-05T12:01:09;6.23;;;3.47;;
5890;SDS011;2971;52.420;7.080;2023-04-05T12:03:35;5.43;;;3.57;;
5890;SDS011;2971;52.420;7.080;2023-04-05T12:06:01;4.27;;;3.20;;
5890;SDS011;2971;52.420;7.080;2023-04-05T12:08:40;3.40;;;2.90;;
5890;SDS011;2971;52.420;7.080;2023-04-05T12:11:06;5.23;;;3.10;;
5890;SDS011;2971;52.420;7.080;2023-04-05T12:13:33;4.50;;;3.43;;
5890;SDS011;2971;52.420;7.080;2023-04-05T12:16:03;8.47;;;4.27;;
5890;SDS011;2971;52.420;7.080;2023-04-05T12:18:31;3.87;;;3.10;;
5890;SDS011;2971;52.420;7.080;2023-04-05T12:20:58;4.30;;;3.03;;
5890;SDS011;2971;52.420;7.080;2023-04-05T12:23:25;8.57;;;3.47;;
5890;SDS011;2971;52.420;7.080;2023-04-05T12:25:52;4.70;;;3.10;;
5890;SDS011;2971;52.420;7.080;2023-04-05T12:28:17;6.50;;;3.30;;
5890;SDS011;2971;52.420;7.080;2023-04-05T12:30:50;6.20;;;3.47;;
5890;SDS011;2971;52.420;7.080;2023-04-05T12:33:31;3.93;;;2.77;;
5890;SDS011;2971;52.420;7.080;2023-04-05T12:35:58;4.13;;;3.00;;
5890;SDS011;2971;52.420;7.080;2023-04-05T12:38:26;6.47;;;2.93;;
5890;SDS011;2971;52.420;7.080;2023-04-05T12:40:56;4.63;;;2.57;;
5890;SDS011;2971;52.420;7.080;2023-04-05T12:43:23;4.17;;;2.93;;
5890;SDS011;2971;52.420;7.080;2023-04-05T12:45:51;3.70;;;2.70;;
5890;SDS011;2971;52.420;7.080;2023-04-05T12:48:20;4.33;;;2.80;;
5890;SDS011;2971;52.420;7.080;2023-04-05T12:50:47;6.80;;;3.10;;
5890;SDS011;2971;52.420;7.080;2023-04-05T12:53:16;5.23;;;2.93;;
5890;SDS011;2971;52.420;7.080;2023-04-05T12:55:51;4.90;;;2.77;;
5890;SDS011;2971;52.420;7.080;2023-04-05T12:58:18;4.80;;;2.70;;
5890;SDS011;2971;52.420;7.080;2023-04-05T13:00:44;4.20;;;3.20;;
5890;SDS011;2971;52.420;7.080;2023-04-05T13:03:17;6.80;;;2.83;;
5890;SDS011;2971;52.420;7.080;2023-04-05T13:05:44;3.77;;;2.83;;
5890;SDS011;2971;52.420;7.080;2023-04-05T13:08:10;3.97;;;3.13;;
5890;SDS011;2971;52.420;7.080;2023-04-05T13:10:36;3.97;;;3.00;;
5890;SDS011;2971;52.420;7.080;2023-04-05T13:13:01;5.30;;;2.93;;
5890;SDS011;2971;52.420;7.080;2023-04-05T13:15:27;5.77;;;3.00;;
5890;SDS011;2971;52.420;7.080;2023-04-05T13:17:52;5.37;;;3.27;;
5890;SDS011;2971;52.420;7.080;2023-04-05T13:20:19;5.07;;;3.50;;
5890;SDS011;2971;52.420;7.080;2023-04-05T13:22:44;3.73;;;2.93;;
5890;SDS011;2971;52.420;7.080;2023-04-05T13:25:10;3.40;;;3.10;;
5890;SDS011;2971;52.420;7.080;2023-04-05T13:27:36;3.50;;;2.80;;
5890;SDS011;2971;52.420;7.080;2023-04-05T13:30:01;5.63;;;3.20;;
5890;SDS011;2971;52.420;7.080;2023-04-05T13:32:27;4.17;;;3.10;;
5890;SDS011;2971;52.420;7.080;2023-04-05T13:34:52;3.47;;;2.80;;
5890;SDS011;2971;52.420;7.080;2023-04-05T13:37:18;4.30;;;2.90;;
5890;SDS011;2971;52.420;7.080;2023-04-05T13:39:43;3.97;;;2.70;;
5890;SDS011;2971;52.420;7.080;2023-04-05T13:42:08;3.73;;;3.20;;
5890;SDS011;2971;52.420;7.080;2023-04-05T13:44:34;4.50;;;3.07;;
5890;SDS011;2971;52.420;7.080;2023-04-05T13:47:00;4.63;;;3.00;;
5890;SDS011;2971;52.420;7.080;2023-04-05T13:49:25;3.50;;;3.07;;
5890;SDS011;2971;52.420;7.080;2023-04-05T13:51:50;3.23;;;2.90;;
5890;SDS011;2971;52.420;7.080;2023-04-05T13:54:16;5.73;;;3.17;;
5890;SDS011;2971;52.420;7.080;2023-04-05T13:56:43;3.67;;;3.10;;
5890;SDS011;2971;52.420;7.080;2023-04-05T13:59:08;3.67;;;3.17;;
5890;SDS011;2971;52.420;7.080;2023-04-05T14:01:34;4.10;;;3.17;;
5890;SDS011;2971;52.420;7.080;2023-04-05T14:03:59;3.77;;;3.10;;
5890;SDS011;2971;52.420;7.080;2023-04-05T14:06:25;6.43;;;3.20;;
5890;SDS011;2971;52.420;7.080;2023-04-05T14:08:51;4.43;;;3.40;;
5890;SDS011;2971;52.420;7.080;2023-04-05T14:11:19;5.47;;;3.50;;
5890;SDS011;2971;52.420;7.080;2023-04-05T14:13:46;4.35;;;3.70;;
5890;SDS011;2971;52.420;7.080;2023-04-05T14:16:12;4.07;;;3.58;;
5890;SDS011;2971;52.420;7.080;2023-04-05T14:18:37;3.85;;;3.42;;
5890;SDS011;2971;52.420;7.080;2023-04-05T14:21:03;4.63;;;3.60;;
5890;SDS011;2971;52.420;7.080;2023-04-05T14:23:28;6.83;;;3.40;;
5890;SDS011;2971;52.420;7.080;2023-04-05T14:25:53;3.93;;;3.17;;
5890;SDS011;2971;52.420;7.080;2023-04-05T14:28:19;4.53;;;3.50;;
5890;SDS011;2971;52.420;7.080;2023-04-05T14:30:44;3.57;;;3.27;;
5890;SDS011;2971;52.420;7.080;2023-04-05T14:33:10;4.33;;;3.30;;
5890;SDS011;2971;52.420;7.080;2023-04-05T14:35:38;6.40;;;3.70;;
5890;SDS011;2971;52.420;7.080;2023-04-05T14:38:04;3.93;;;3.53;;
5890;SDS011;2971;52.420;7.080;2023-04-05T14:40:29;3.87;;;3.53;;
5890;SDS011;2971;52.420;7.080;2023-04-05T14:42:55;5.57;;;3.87;;
5890;SDS011;2971;52.420;7.080;2023-04-05T14:45:20;4.10;;;3.70;;
5890;SDS011;2971;52.420;7.080;2023-04-05T14:47:47;5.37;;;3.83;;
5890;SDS011;2971;52.420;7.080;2023-04-05T14:50:12;4.73;;;4.10;;
5890;SDS011;2971;52.420;7.080;2023-04-05T14:52:38;4.87;;;3.80;;
5890;SDS011;2971;52.420;7.080;2023-04-05T14:55:04;5.63;;;4.17;;
5890;SDS011;2971;52.420;7.080;2023-04-05T14:57:29;4.77;;;4.27;;
5890;SDS011;2971;52.420;7.080;2023-04-05T14:59:55;5.50;;;3.97;;
5890;SDS011;2971;52.420;7.080;2023-04-05T15:02:20;6.17;;;4.50;;
5890;SDS011;2971;52.420;7.080;2023-04-05T15:04:46;4.87;;;4.30;;
5890;SDS011;2971;52.420;7.080;2023-04-05T15:07:11;5.23;;;3.93;;
5890;SDS011;2971;52.420;7.080;2023-04-05T15:09:37;5.80;;;4.07;;
5890;SDS011;2971;52.420;7.080;2023-04-05T15:12:02;4.13;;;3.77;;
5890;SDS011;2971;52.420;7.080;2023-04-05T15:14:28;6.30;;;4.27;;
5890;SDS011;2971;52.420;7.080;2023-04-05T15:16:53;4.50;;;4.10;;
5890;SDS011;2971;52.420;7.080;2023-04-05T15:19:19;4.60;;;3.93;;
5890;SDS011;2971;52.420;7.080;2023-04-05T15:21:44;4.70;;;4.10;;
5890;SDS011;2971;52.420;7.080;2023-04-05T15:24:10;5.03;;;4.20;;
5890;SDS011;2971;52.420;7.080;2023-04-05T15:26:35;4.93;;;3.90;;
5890;SDS011;2971;52.420;7.080;2023-04-05T15:29:01;4.70;;;4.17;;
5890;SDS011;2971;52.420;7.080;2023-04-05T15:31:26;4.83;;;4.07;;
5890;SDS011;2971;52.420;7.080;2023-04-05T15:33:52;5.30;;;4.20;;
5890;SDS011;2971;52.420;7.080;2023-04-05T15:36:17;6.73;;;4.60;;
5890;SDS011;2971;52.420;7.080;2023-04-05T15:38:43;5.90;;;4.77;;
5890;SDS011;2971;52.420;7.080;2023-04-05T15:41:08;5.17;;;4.20;;